createdAt,value
2023-04-08T00:01:05.647Z,22.55
2023-04-08T00:04:09.879Z,24.73
2023-04-08T00:10:14.745Z,20.98
2023-04-08T00:13:17.097Z,22.73
2023-04-08T00:16:19.768Z,21.40
2023-04-08T00:19:22.175Z,24.00
2023-04-08T00:22:24.806Z,19.83
2023-04-08T00:25:27.170Z,20.08
2023-04-08T00:28:29.997Z,22.87
2023-04-08T00:31:32.350Z,23.35
2023-04-08T00:34:35.034Z,25.35
2023-04-08T00:37:37.582Z,22.67
2023-04-08T00:40:40.358Z,23.58
2023-04-08T00:43:42.663Z,24.63
2023-04-08T00:46:45.790Z,25.67
2023-04-08T00:49:48.275Z,23.27
2023-04-08T00:52:51.135Z,25.88
2023-04-08T00:55:53.651Z,25.50
2023-04-08T00:58:56.253Z,30.15
2023-04-08T01:02:12.454Z,27.35
2023-04-08T01:05:25.878Z,25.30
2023-04-08T01:08:31.470Z,25.83
2023-04-08T01:11:35.847Z,25.67
2023-04-08T01:14:46.176Z,27.58
2023-04-08T01:17:53.167Z,25.30
2023-04-08T01:20:55.785Z,23.02
2023-04-08T01:24:18.335Z,24.23
2023-04-08T01:27:21.186Z,26.37
2023-04-08T01:30:26.013Z,27.27
2023-04-08T01:33:29.739Z,24.48
2023-04-08T01:39:36.650Z,23.45
2023-04-08T01:45:47.824Z,22.48
2023-04-08T01:48:51.728Z,23.02
2023-04-08T01:51:57.002Z,25.48
2023-04-08T01:54:59.729Z,23.58
2023-04-08T01:58:05.568Z,25.25
2023-04-08T02:01:12.749Z,25.70
2023-04-08T02:04:15.589Z,26.23
2023-04-08T02:07:20.532Z,26.83
2023-04-08T02:10:23.138Z,24.83
2023-04-08T02:13:25.488Z,26.10
2023-04-08T02:16:40.082Z,24.85
2023-04-08T02:20:07.743Z,26.73
2023-04-08T02:23:20.816Z,26.75
2023-04-08T02:26:25.001Z,25.58
2023-04-08T02:29:31.493Z,24.50
2023-04-08T02:32:35.471Z,27.15
2023-04-08T02:35:40.562Z,24.90
2023-04-08T02:38:49.086Z,23.70
2023-04-08T02:41:52.245Z,22.00
2023-04-08T02:44:57.602Z,24.17
2023-04-08T02:48:01.303Z,22.83
2023-04-08T02:51:04.001Z,25.55
2023-04-08T02:54:06.650Z,23.55
2023-04-08T02:57:09.015Z,21.98
2023-04-08T03:00:12.309Z,21.62
2023-04-08T03:03:14.701Z,23.83
2023-04-08T03:06:17.363Z,22.98
2023-04-08T03:09:19.735Z,22.77
2023-04-08T03:12:22.998Z,25.95
2023-04-08T03:15:25.751Z,22.92
2023-04-08T03:18:28.345Z,27.73
2023-04-08T03:21:31.893Z,24.80
2023-04-08T03:24:34.453Z,22.15
2023-04-08T03:27:36.760Z,25.30
2023-04-08T03:30:39.322Z,25.75
2023-04-08T03:33:41.674Z,22.48
2023-04-08T03:36:44.471Z,24.40
2023-04-08T03:39:46.783Z,22.67
2023-04-08T03:42:49.369Z,23.98
2023-04-08T03:45:51.714Z,23.95
2023-04-08T03:48:54.406Z,20.95
2023-04-08T03:51:56.762Z,22.30
2023-04-08T03:54:59.498Z,25.48
2023-04-08T03:58:01.764Z,24.20
2023-04-08T04:01:04.590Z,24.37
2023-04-08T04:04:07.357Z,23.80
2023-04-08T04:07:09.921Z,24.35
2023-04-08T04:10:12.739Z,21.85
2023-04-08T04:13:15.863Z,21.98
2023-04-08T04:16:18.571Z,21.60
2023-04-08T04:19:21.184Z,19.60
2023-04-08T04:22:23.839Z,20.85
2023-04-08T04:25:26.241Z,22.20
2023-04-08T04:28:28.894Z,19.42
2023-04-08T04:31:31.322Z,22.13
2023-04-08T04:34:34.244Z,19.67
2023-04-08T04:37:36.599Z,21.25
2023-04-08T04:40:39.671Z,17.80
2023-04-08T04:43:41.938Z,18.33
2023-04-08T04:46:44.769Z,18.52
2023-04-08T04:49:47.525Z,16.60
2023-04-08T04:52:50.146Z,17.65
2023-04-08T04:55:52.651Z,17.02
2023-04-08T04:58:55.255Z,15.18
2023-04-08T05:01:57.796Z,16.80
2023-04-08T05:05:01.006Z,17.58
2023-04-08T05:08:03.363Z,19.25
2023-04-08T05:11:10.015Z,15.40
2023-04-08T05:14:12.469Z,18.08
2023-04-08T05:17:15.062Z,16.70
2023-04-08T05:20:17.691Z,17.60
2023-04-08T05:23:20.453Z,18.02
2023-04-08T05:26:23.309Z,15.07
2023-04-08T05:29:26.403Z,17.17
2023-04-08T05:32:30.224Z,17.25
2023-04-08T05:35:33.026Z,15.32
2023-04-08T05:38:35.456Z,16.65
2023-04-08T05:41:38.053Z,14.10
2023-04-08T05:44:43.824Z,16.15
2023-04-08T05:47:46.405Z,17.33
2023-04-08T05:50:48.741Z,16.55
2023-04-08T05:53:51.325Z,16.08
2023-04-08T05:56:53.642Z,17.17
2023-04-08T05:59:56.348Z,17.15
2023-04-08T06:02:59.072Z,20.37
2023-04-08T06:06:01.877Z,17.97
2023-04-08T06:09:04.378Z,17.23
2023-04-08T06:12:07.025Z,17.00
2023-04-08T06:15:10.028Z,15.70
2023-04-08T06:18:12.725Z,16.83
2023-04-08T06:21:15.322Z,16.52
2023-04-08T06:24:18.009Z,16.77
2023-04-08T06:27:20.695Z,18.00
2023-04-08T06:30:23.276Z,17.67
2023-04-08T06:33:25.603Z,18.35
2023-04-08T06:36:28.789Z,18.08
2023-04-08T06:39:31.369Z,18.25
2023-04-08T06:42:33.936Z,18.83
2023-04-08T06:45:37.248Z,17.77
2023-04-08T06:48:40.269Z,18.35
2023-04-08T06:51:42.800Z,19.48
2023-04-08T06:54:45.361Z,20.67
2023-04-08T06:57:47.649Z,19.08
2023-04-08T07:00:50.565Z,22.77
2023-04-08T07:03:53.128Z,24.12
2023-04-08T07:06:56.133Z,19.90
2023-04-08T07:09:58.438Z,18.27
2023-04-08T07:13:01.798Z,17.15
2023-04-08T07:16:04.822Z,21.33
2023-04-08T07:19:07.593Z,20.75
2023-04-08T07:22:10.029Z,22.70
2023-04-08T07:25:12.714Z,18.25
2023-04-08T07:28:15.048Z,18.10
2023-04-08T07:31:18.602Z,20.55
2023-04-08T07:34:21.136Z,18.90
2023-04-08T07:37:23.701Z,20.45
2023-04-08T07:40:26.187Z,19.58
2023-04-08T07:43:28.964Z,17.73
2023-04-08T07:46:31.725Z,20.92
2023-04-08T07:49:35.403Z,19.33
2023-04-08T07:52:37.743Z,19.85
2023-04-08T07:55:41.301Z,16.77
2023-04-08T07:58:44.010Z,20.48
2023-04-08T08:01:46.993Z,16.93
2023-04-08T08:04:50.123Z,17.42
2023-04-08T08:07:52.483Z,17.98
2023-04-08T08:10:55.085Z,18.67
2023-04-08T08:13:57.381Z,18.12
2023-04-08T08:17:00.090Z,20.45
2023-04-08T08:20:04.293Z,19.05
2023-04-08T08:23:07.013Z,19.17
2023-04-08T08:26:10.601Z,16.77
2023-04-08T08:29:13.242Z,15.15
2023-04-08T08:32:15.788Z,17.50
2023-04-08T08:35:18.426Z,18.00
2023-04-08T08:38:20.956Z,14.68
2023-04-08T08:41:23.650Z,14.07
2023-04-08T08:44:27.139Z,17.00
2023-04-08T08:47:31.162Z,17.58
2023-04-08T08:50:33.705Z,14.27
2023-04-08T08:53:36.698Z,14.95
2023-04-08T08:56:39.104Z,16.10
2023-04-08T08:59:41.738Z,17.10
2023-04-08T09:02:44.584Z,16.40
2023-04-08T09:05:55.662Z,16.30
2023-04-08T09:08:57.967Z,17.35
2023-04-08T09:12:06.969Z,20.60
2023-04-08T09:15:10.724Z,18.23
2023-04-08T09:21:25.174Z,15.73
2023-04-08T09:24:30.067Z,18.47
2023-04-08T09:27:36.355Z,16.42
2023-04-08T09:30:39.052Z,17.00
2023-04-08T09:33:41.375Z,15.45
2023-04-08T09:36:47.524Z,15.75
2023-04-08T09:39:49.863Z,15.00
2023-04-08T09:42:54.323Z,13.07
2023-04-08T09:45:58.010Z,13.43
2023-04-08T09:52:20.088Z,14.00
2023-04-08T09:55:25.886Z,13.62
2023-04-08T09:58:29.412Z,15.85
2023-04-08T10:01:41.994Z,13.55
2023-04-08T10:04:48.981Z,15.50
2023-04-08T10:07:54.005Z,15.57
2023-04-08T10:10:57.531Z,15.45
2023-04-08T10:14:00.270Z,13.95
2023-04-08T10:17:28.664Z,14.02
2023-04-08T10:20:36.899Z,15.20
2023-04-08T10:23:59.167Z,15.82
2023-04-08T10:27:04.356Z,16.65
2023-04-08T10:30:31.562Z,14.85
2023-04-08T10:33:40.098Z,14.70
2023-04-08T10:36:44.680Z,15.63
2023-04-08T10:39:51.975Z,17.30
2023-04-08T10:42:58.552Z,14.80
2023-04-08T10:46:01.578Z,14.77
2023-04-08T10:49:04.260Z,16.87
2023-04-08T10:52:08.053Z,14.87
2023-04-08T10:55:10.701Z,15.75
2023-04-08T10:58:13.107Z,16.15
2023-04-08T11:01:15.772Z,14.50
2023-04-08T11:04:19.761Z,15.38
2023-04-08T11:07:22.563Z,15.80
2023-04-08T11:10:26.167Z,16.62
2023-04-08T11:13:29.320Z,15.65
2023-04-08T11:16:32.714Z,14.87
2023-04-08T11:19:36.394Z,16.52
2023-04-08T11:22:40.101Z,16.42
2023-04-08T11:28:46.637Z,15.43
2023-04-08T11:31:50.172Z,17.55
2023-04-08T11:34:53.342Z,17.92
2023-04-08T11:37:57.067Z,15.70
2023-04-08T11:41:00.161Z,15.90
2023-04-08T11:44:02.930Z,17.87
2023-04-08T11:47:05.688Z,17.60
2023-04-08T11:50:09.545Z,14.13
2023-04-08T11:53:41.458Z,13.98
2023-04-08T11:56:47.445Z,15.75
2023-04-08T11:59:49.787Z,16.60
2023-04-08T12:02:53.057Z,14.68
2023-04-08T12:05:55.737Z,14.90
2023-04-08T12:08:58.111Z,16.08
2023-04-08T12:12:01.291Z,15.95
2023-04-08T12:15:04.340Z,15.07
2023-04-08T12:18:07.012Z,14.63
2023-04-08T12:21:09.414Z,15.18
2023-04-08T12:24:12.030Z,11.35
2023-04-08T12:27:14.779Z,11.00
2023-04-08T12:30:17.518Z,11.60
2023-04-08T12:33:19.858Z,11.52
2023-04-08T12:36:22.609Z,12.77
2023-04-08T12:39:25.306Z,13.25
2023-04-08T12:42:28.046Z,11.52
2023-04-08T12:45:30.449Z,14.65
2023-04-08T12:48:33.274Z,13.15
2023-04-08T12:51:36.254Z,12.05
2023-04-08T12:54:38.979Z,13.75
2023-04-08T12:57:41.375Z,12.82
2023-04-08T13:00:46.709Z,12.90
2023-04-08T13:03:49.462Z,14.90
2023-04-08T13:06:52.299Z,12.37
2023-04-08T13:09:54.618Z,11.68
2023-04-08T13:12:57.636Z,12.65
2023-04-08T13:16:00.427Z,11.27
2023-04-08T13:19:03.074Z,13.20
2023-04-08T13:22:05.366Z,13.95
2023-04-08T13:25:08.462Z,14.35
2023-04-08T13:28:11.579Z,13.98
2023-04-08T13:31:14.172Z,16.15
2023-04-08T13:34:16.635Z,14.77
2023-04-08T13:37:19.489Z,12.88
2023-04-08T13:40:21.835Z,13.75
2023-04-08T13:43:24.543Z,11.12
2023-04-08T13:46:27.055Z,11.30
2023-04-08T13:49:29.817Z,13.10
2023-04-08T13:52:32.140Z,13.18
2023-04-08T13:55:34.778Z,10.18
2023-04-08T13:58:37.282Z,11.68
2023-04-08T14:01:40.876Z,12.85
2023-04-08T14:04:46.790Z,12.90
2023-04-08T14:07:49.473Z,12.18
2023-04-08T14:10:52.550Z,12.18
2023-04-08T14:13:54.880Z,12.80
2023-04-08T14:16:57.516Z,12.60
2023-04-08T14:20:01.067Z,13.07
2023-04-08T14:23:04.404Z,11.80
2023-04-08T14:26:06.799Z,11.93
2023-04-08T14:29:11.827Z,13.50
2023-04-08T14:32:14.183Z,13.27
2023-04-08T14:35:16.831Z,13.62
2023-04-08T14:38:20.628Z,13.77
2023-04-08T14:44:30.514Z,11.68
2023-04-08T14:47:33.232Z,11.27
2023-04-08T14:50:35.591Z,10.25
2023-04-08T14:53:38.833Z,11.07
2023-04-08T14:56:41.656Z,9.15
2023-04-08T14:59:44.273Z,11.40
2023-04-08T15:02:47.233Z,9.15
2023-04-08T15:05:50.111Z,8.60
2023-04-08T15:08:53.001Z,8.60
2023-04-08T15:11:55.903Z,8.80
2023-04-08T15:14:58.259Z,7.70
2023-04-08T15:18:00.907Z,9.55
2023-04-08T15:21:03.534Z,9.15
2023-04-08T15:24:06.585Z,8.60
2023-04-08T15:27:09.038Z,8.88
2023-04-08T15:30:12.560Z,10.25
2023-04-08T15:33:15.014Z,9.48
2023-04-08T15:36:19.864Z,9.85
2023-04-08T15:39:22.526Z,10.40
2023-04-08T15:42:25.513Z,8.93
2023-04-08T15:45:28.602Z,10.50
2023-04-08T15:48:32.739Z,9.98
2023-04-08T15:51:34.995Z,8.20
2023-04-08T15:54:37.631Z,9.85
2023-04-08T15:57:39.914Z,8.77
2023-04-08T16:00:42.544Z,9.95
2023-04-08T16:03:45.614Z,10.18
2023-04-08T16:06:48.023Z,8.35
2023-04-08T16:09:50.949Z,11.10
2023-04-08T16:12:53.640Z,19.65
2023-04-08T16:15:58.224Z,10.50
2023-04-08T16:19:02.293Z,10.00
2023-04-08T16:22:04.990Z,8.40
2023-04-08T16:25:07.749Z,9.35
2023-04-08T16:28:10.545Z,12.02
2023-04-08T16:31:12.930Z,9.38
2023-04-08T16:34:15.613Z,9.55
2023-04-08T16:37:17.986Z,10.52
2023-04-08T16:40:20.762Z,9.38
2023-04-08T16:43:24.894Z,9.90
2023-04-08T16:46:28.169Z,10.18
2023-04-08T16:49:30.502Z,8.65
2023-04-08T16:52:33.333Z,8.57
2023-04-08T16:55:36.539Z,8.35
2023-04-08T16:58:39.164Z,8.70
2023-04-08T17:01:41.510Z,7.72
2023-04-08T17:04:44.437Z,9.10
2023-04-08T17:07:46.760Z,7.25
2023-04-08T17:10:49.662Z,6.90
2023-04-08T17:13:52.382Z,8.43
2023-04-08T17:16:55.766Z,18.45
2023-04-08T17:19:58.340Z,14.73
2023-04-08T17:23:00.940Z,10.35
2023-04-08T17:26:10.211Z,9.60
2023-04-08T17:29:13.409Z,9.40
2023-04-08T17:32:15.695Z,9.55
2023-04-08T17:35:18.349Z,10.07
2023-04-08T17:38:20.897Z,10.30
2023-04-08T17:41:43.462Z,10.25
2023-04-08T17:44:48.008Z,10.02
2023-04-08T17:47:51.864Z,10.10
2023-04-08T17:51:06.106Z,9.55
2023-04-08T17:54:08.740Z,9.45
2023-04-08T17:57:11.089Z,9.18
2023-04-08T18:00:13.839Z,10.77
2023-04-08T18:03:16.854Z,12.05
2023-04-08T18:06:19.498Z,14.15
2023-04-08T18:09:22.134Z,13.07
2023-04-08T18:12:26.249Z,13.98
2023-04-08T18:15:28.995Z,13.52
2023-04-08T18:18:31.341Z,12.65
2023-04-08T18:21:33.934Z,12.20
2023-04-08T18:24:37.260Z,12.52
2023-04-08T18:27:40.899Z,12.65
2023-04-08T18:30:43.408Z,12.50
2023-04-08T18:33:46.142Z,11.40
2023-04-08T18:36:48.804Z,11.40
2023-04-08T18:39:51.729Z,10.60
2023-04-08T18:42:54.026Z,13.98
2023-04-08T18:45:56.676Z,10.85
2023-04-08T18:48:59.908Z,9.95
2023-04-08T18:52:03.598Z,11.90
2023-04-08T18:55:06.302Z,9.95
2023-04-08T18:58:09.372Z,10.63
2023-04-08T19:01:11.784Z,10.48
2023-04-08T19:04:14.433Z,11.05
2023-04-08T19:07:17.988Z,12.37
2023-04-08T19:10:21.946Z,11.50
2023-04-08T19:13:24.283Z,12.05
2023-04-08T19:16:27.330Z,11.85
2023-04-08T19:19:29.661Z,11.93
2023-04-08T19:22:32.911Z,11.80
2023-04-08T19:25:35.902Z,12.30
2023-04-08T19:28:38.651Z,13.43
2023-04-08T19:31:41.081Z,12.00
2023-04-08T19:34:44.391Z,13.95
2023-04-08T19:37:46.875Z,12.85
2023-04-08T19:40:49.952Z,11.20
2023-04-08T19:43:52.395Z,12.10
2023-04-08T19:46:57.668Z,13.62
2023-04-08T19:50:00.352Z,12.77
2023-04-08T19:53:03.240Z,13.75
2023-04-08T19:56:05.722Z,13.27
2023-04-08T19:59:08.459Z,11.73
2023-04-08T20:02:10.996Z,12.20
2023-04-08T20:05:16.371Z,12.57
2023-04-08T20:08:18.690Z,13.65
2023-04-08T20:11:21.472Z,14.43
2023-04-08T20:14:23.810Z,14.80
2023-04-08T20:17:27.284Z,14.27
2023-04-08T20:20:30.109Z,12.87
2023-04-08T20:23:33.192Z,13.17
2023-04-08T20:26:36.025Z,12.33
2023-04-08T20:29:38.754Z,13.05
2023-04-08T20:32:41.111Z,12.88
2023-04-08T20:35:43.987Z,16.02
2023-04-08T20:38:46.369Z,30.08
2023-04-08T20:41:49.021Z,20.10
2023-04-08T20:44:52.037Z,13.15
2023-04-08T20:47:55.674Z,14.95
2023-04-08T20:50:58.133Z,13.62
2023-04-08T20:54:00.979Z,14.80
2023-04-08T20:57:03.422Z,13.27
2023-04-08T21:00:06.629Z,16.25
2023-04-08T21:03:09.217Z,15.43
2023-04-08T21:06:19.392Z,13.18
2023-04-08T21:09:21.736Z,14.23
2023-04-08T21:12:24.389Z,13.13
2023-04-08T21:15:27.325Z,14.98
2023-04-08T21:18:30.179Z,14.32
2023-04-08T21:21:32.631Z,12.93
2023-04-08T21:24:36.851Z,13.10
2023-04-08T21:27:41.185Z,13.50
2023-04-08T21:30:43.810Z,14.87
2023-04-08T21:33:46.195Z,15.55
2023-04-08T21:36:48.816Z,13.00
2023-04-08T21:39:51.518Z,12.43
2023-04-08T21:42:54.185Z,14.85
2023-04-08T21:45:56.544Z,13.55
2023-04-08T21:48:59.533Z,14.45
2023-04-08T21:52:03.254Z,13.88
2023-04-08T21:58:09.035Z,12.85
2023-04-08T22:01:11.629Z,15.93
2023-04-08T22:04:14.627Z,13.07
2023-04-08T22:07:17.241Z,17.77
2023-04-08T22:10:20.002Z,21.95
2023-04-08T22:13:22.316Z,14.43
2023-04-08T22:16:24.960Z,14.98
2023-04-08T22:19:27.503Z,14.38
2023-04-08T22:22:30.398Z,15.70
2023-04-08T22:25:32.741Z,14.90
2023-04-08T22:28:35.389Z,14.13
2023-04-08T22:31:37.826Z,16.25
2023-04-08T22:34:40.717Z,16.30
2023-04-08T22:37:43.136Z,17.55
2023-04-08T22:40:46.000Z,15.52
2023-04-08T22:43:49.370Z,16.15
2023-04-08T22:46:52.039Z,15.23
2023-04-08T22:49:54.328Z,15.55
2023-04-08T22:52:56.965Z,14.48
2023-04-08T22:55:59.290Z,14.25
2023-04-08T22:59:01.953Z,15.77
2023-04-08T23:02:04.407Z,15.02
2023-04-08T23:05:07.678Z,16.17
2023-04-08T23:08:09.950Z,16.67
2023-04-08T23:11:12.563Z,16.52
2023-04-08T23:14:14.857Z,16.95
2023-04-08T23:17:17.562Z,16.00
2023-04-08T23:20:19.872Z,15.55
2023-04-08T23:23:24.680Z,14.32
2023-04-08T23:26:27.101Z,15.43
2023-04-08T23:29:30.041Z,15.93
2023-04-08T23:32:33.257Z,16.27
2023-04-08T23:35:35.998Z,17.55
2023-04-08T23:38:38.725Z,18.05
2023-04-08T23:41:41.501Z,14.40
2023-04-08T23:44:44.020Z,14.70
2023-04-08T23:47:46.815Z,17.37
2023-04-08T23:50:53.349Z,15.35
2023-04-08T23:53:56.179Z,14.48
2023-04-08T23:56:58.504Z,15.60
